createdAt,value
2018-03-23T00:02:01.439Z,17.50
2018-03-23T00:04:29.922Z,15.10
2018-03-23T00:06:58.539Z,17.30
2018-03-23T00:09:27.640Z,15.97
2018-03-23T00:11:56.520Z,16.60
2018-03-23T00:14:25.477Z,19.07
2018-03-23T00:16:54.358Z,18.23
2018-03-23T00:19:22.856Z,16.53
2018-03-23T00:21:51.308Z,20.00
2018-03-23T00:24:19.842Z,13.63
2018-03-23T00:26:48.259Z,14.83
2018-03-23T00:29:16.805Z,17.20
2018-03-23T00:31:45.379Z,16.63
2018-03-23T00:34:13.986Z,15.80
2018-03-23T00:36:42.610Z,15.67
2018-03-23T00:39:11.008Z,9.53
2018-03-23T00:41:39.464Z,10.00
2018-03-23T00:44:07.848Z,9.43
2018-03-23T00:46:37.445Z,3.60
2018-03-23T00:49:05.924Z,6.77
2018-03-23T00:51:34.295Z,4.73
2018-03-23T00:54:02.656Z,3.30
2018-03-23T00:56:31.077Z,5.70
2018-03-23T00:58:59.616Z,5.63
2018-03-23T01:01:28.323Z,5.80
2018-03-23T01:03:57.046Z,5.00
2018-03-23T01:06:25.661Z,7.57
2018-03-23T01:08:54.532Z,7.43
2018-03-23T01:11:23.170Z,7.93
2018-03-23T01:13:51.712Z,7.87
2018-03-23T01:16:20.120Z,7.45
2018-03-23T01:18:48.495Z,9.30
2018-03-23T01:21:17.053Z,6.50
2018-03-23T01:23:45.556Z,7.00
2018-03-23T01:26:14.189Z,5.55
2018-03-23T01:28:42.820Z,4.22
2018-03-23T01:31:11.205Z,3.83
2018-03-23T01:33:39.584Z,3.08
2018-03-23T01:36:08.073Z,4.83
2018-03-23T01:38:36.435Z,7.35
2018-03-23T01:41:04.893Z,7.73
2018-03-23T01:43:33.244Z,12.50
2018-03-23T01:46:01.625Z,14.40
2018-03-23T01:48:30.197Z,15.15
2018-03-23T01:50:58.779Z,15.63
2018-03-23T01:53:39.425Z,20.27
2018-03-23T01:56:07.788Z,15.43
2018-03-23T01:58:36.162Z,18.58
2018-03-23T02:01:04.558Z,17.55
2018-03-23T02:03:32.921Z,18.70
2018-03-23T02:06:01.372Z,16.93
2018-03-23T02:08:29.819Z,16.67
2018-03-23T02:10:58.378Z,18.30
2018-03-23T02:13:27.033Z,14.10
2018-03-23T02:15:55.810Z,18.40
2018-03-23T02:18:24.879Z,18.40
2018-03-23T02:20:53.448Z,17.00
2018-03-23T02:23:21.875Z,20.10
2018-03-23T02:25:50.410Z,19.57
2018-03-23T02:28:18.825Z,19.93
2018-03-23T02:30:47.286Z,17.20
2018-03-23T02:33:15.651Z,16.70
2018-03-23T02:35:44.265Z,16.97
2018-03-23T02:38:12.701Z,18.58
2018-03-23T02:40:41.161Z,18.83
2018-03-23T02:43:10.479Z,19.00
2018-03-23T02:45:38.848Z,13.83
2018-03-23T02:48:07.244Z,11.80
2018-03-23T02:50:35.804Z,16.50
2018-03-23T02:53:04.512Z,16.70
2018-03-23T02:55:32.884Z,13.23
2018-03-23T02:58:01.389Z,14.02
2018-03-23T03:00:30.839Z,11.37
2018-03-23T03:02:59.427Z,13.60
2018-03-23T03:05:27.991Z,15.35
2018-03-23T03:07:56.743Z,18.08
2018-03-23T03:10:25.395Z,15.07
2018-03-23T03:12:55.128Z,17.67
2018-03-23T03:15:23.608Z,23.62
2018-03-23T03:17:52.437Z,32.92
2018-03-23T03:20:21.177Z,38.33
2018-03-23T03:22:49.555Z,36.40
2018-03-23T03:25:17.961Z,47.65
2018-03-23T03:27:46.617Z,41.35
2018-03-23T03:30:15.002Z,45.30
2018-03-23T03:32:43.446Z,41.80
2018-03-23T03:35:11.835Z,43.50
2018-03-23T03:37:40.229Z,45.85
2018-03-23T03:40:08.824Z,42.15
2018-03-23T03:42:37.291Z,52.03
2018-03-23T03:45:05.653Z,44.70
2018-03-23T03:47:34.058Z,47.58
2018-03-23T03:50:02.483Z,39.92
2018-03-23T03:52:30.982Z,44.92
2018-03-23T03:55:00.144Z,44.30
2018-03-23T03:57:29.413Z,45.22
2018-03-23T03:59:58.320Z,44.93
2018-03-23T04:02:27.133Z,43.57
2018-03-23T04:04:56.081Z,43.80
2018-03-23T04:07:24.935Z,43.80
2018-03-23T04:09:53.644Z,43.83
2018-03-23T04:12:22.267Z,55.92
2018-03-23T04:14:50.727Z,42.77
2018-03-23T04:17:19.144Z,44.37
2018-03-23T04:19:47.560Z,48.47
2018-03-23T04:22:16.120Z,40.00
2018-03-23T04:24:44.643Z,49.83
2018-03-23T04:27:13.058Z,49.27
2018-03-23T04:29:41.445Z,50.50
2018-03-23T04:32:10.209Z,50.03
2018-03-23T04:34:38.580Z,46.27
2018-03-23T04:37:07.292Z,55.90
2018-03-23T04:39:35.959Z,46.43
2018-03-23T04:42:04.408Z,43.27
2018-03-23T04:44:32.868Z,51.65
2018-03-23T04:47:01.416Z,58.50
2018-03-23T04:49:29.902Z,54.70
2018-03-23T04:51:58.664Z,51.27
2018-03-23T04:54:27.872Z,52.58
2018-03-23T04:56:57.268Z,54.40
2018-03-23T04:59:26.307Z,54.57
2018-03-23T05:01:55.155Z,59.03
2018-03-23T05:04:24.134Z,55.20
2018-03-23T05:06:53.068Z,54.08
2018-03-23T05:09:21.591Z,55.53
2018-03-23T05:11:50.044Z,50.75
2018-03-23T05:14:18.440Z,40.00
2018-03-23T05:16:46.969Z,43.70
2018-03-23T05:19:15.575Z,52.30
2018-03-23T05:21:44.016Z,43.55
2018-03-23T05:24:12.405Z,47.60
2018-03-23T05:26:40.779Z,51.93
2018-03-23T05:29:09.331Z,45.80
2018-03-23T05:31:37.826Z,44.00
2018-03-23T05:34:06.268Z,43.43
2018-03-23T05:36:34.664Z,50.27
2018-03-23T05:39:03.048Z,54.47
2018-03-23T05:41:31.608Z,56.70
2018-03-23T05:44:00.099Z,48.27
2018-03-23T05:46:28.568Z,59.03
2018-03-23T05:48:57.196Z,54.10
2018-03-23T05:51:25.951Z,62.05
2018-03-23T05:53:55.602Z,51.17
2018-03-23T05:56:24.599Z,53.07
2018-03-23T05:58:53.408Z,56.50
2018-03-23T06:01:21.911Z,57.83
2018-03-23T06:03:50.470Z,48.60
2018-03-23T06:06:18.997Z,46.43
2018-03-23T06:08:47.651Z,48.90
2018-03-23T06:11:16.135Z,44.67
2018-03-23T06:13:44.635Z,38.90
2018-03-23T06:16:13.176Z,39.20
2018-03-23T06:18:41.880Z,37.53
2018-03-23T06:21:10.301Z,33.17
2018-03-23T06:23:38.795Z,36.37
2018-03-23T06:26:07.186Z,38.40
2018-03-23T06:28:35.556Z,35.70
2018-03-23T06:31:03.932Z,29.83
2018-03-23T06:33:32.905Z,36.23
2018-03-23T06:36:01.495Z,35.87
2018-03-23T06:38:29.891Z,33.00
2018-03-23T06:40:58.408Z,32.27
2018-03-23T06:43:27.012Z,32.07
2018-03-23T06:45:55.829Z,39.27
2018-03-23T06:48:24.612Z,33.47
2018-03-23T06:50:53.300Z,36.57
2018-03-23T06:53:21.872Z,42.53
2018-03-23T06:55:50.298Z,40.67
2018-03-23T06:58:18.717Z,37.33
2018-03-23T07:00:47.237Z,30.57
2018-03-23T07:03:15.880Z,25.20
2018-03-23T07:05:44.346Z,28.07
2018-03-23T07:08:12.798Z,29.40
2018-03-23T07:10:41.271Z,24.97
2018-03-23T07:13:09.639Z,29.67
2018-03-23T07:15:38.019Z,17.57
2018-03-23T07:18:06.403Z,17.83
2018-03-23T07:20:34.814Z,24.20
2018-03-23T07:23:03.349Z,24.83
2018-03-23T07:25:31.771Z,27.40
2018-03-23T07:28:00.461Z,21.20
2018-03-23T07:30:28.935Z,17.40
2018-03-23T07:32:57.514Z,21.57
2018-03-23T07:35:27.125Z,23.90
2018-03-23T07:37:55.758Z,21.77
2018-03-23T07:40:24.347Z,25.47
2018-03-23T07:42:52.854Z,24.80
2018-03-23T07:45:21.283Z,28.30
2018-03-23T07:47:49.734Z,24.63
2018-03-23T07:50:18.179Z,26.37
2018-03-23T07:52:47.566Z,25.07
2018-03-23T07:55:17.149Z,22.80
2018-03-23T07:57:45.673Z,19.40
2018-03-23T08:00:14.260Z,23.67
2018-03-23T08:02:42.667Z,21.73
2018-03-23T08:05:11.054Z,24.87
2018-03-23T08:07:39.422Z,21.07
2018-03-23T08:10:07.805Z,23.80
2018-03-23T08:12:36.260Z,25.20
2018-03-23T08:15:05.540Z,24.87
2018-03-23T08:17:33.938Z,25.10
2018-03-23T08:20:02.328Z,25.10
2018-03-23T08:22:30.764Z,21.93
2018-03-23T08:24:59.471Z,21.30
2018-03-23T08:27:28.339Z,24.87
2018-03-23T08:29:56.987Z,23.90
2018-03-23T08:32:25.795Z,27.53
2018-03-23T08:34:54.385Z,27.07
2018-03-23T08:37:23.228Z,25.53
2018-03-23T08:39:51.676Z,22.70
2018-03-23T08:42:21.007Z,23.63
2018-03-23T08:44:49.445Z,28.90
2018-03-23T08:47:17.876Z,26.87
2018-03-23T08:49:46.488Z,28.27
2018-03-23T08:52:14.908Z,22.87
2018-03-23T08:54:43.315Z,27.23
2018-03-23T08:57:11.692Z,27.17
2018-03-23T08:59:40.117Z,29.40
2018-03-23T09:02:08.591Z,29.77
2018-03-23T09:04:37.006Z,33.43
2018-03-23T09:07:05.376Z,26.70
2018-03-23T09:09:33.943Z,34.20
2018-03-23T09:12:02.467Z,32.27
2018-03-23T09:14:31.131Z,27.10
2018-03-23T09:16:59.639Z,29.90
2018-03-23T09:19:28.876Z,31.00
2018-03-23T09:21:57.483Z,29.20
2018-03-23T09:24:26.148Z,26.80
2018-03-23T09:26:54.936Z,24.33
2018-03-23T09:29:23.989Z,23.10
2018-03-23T09:31:53.054Z,23.10
2018-03-23T09:34:21.464Z,18.10
2018-03-23T09:36:50.016Z,19.43
2018-03-23T09:39:18.477Z,24.00
2018-03-23T09:41:46.895Z,27.93
2018-03-23T09:44:15.436Z,27.10
2018-03-23T09:46:44.032Z,21.03
2018-03-23T09:49:12.496Z,17.70
2018-03-23T09:51:41.076Z,19.97
2018-03-23T09:54:09.566Z,21.97
2018-03-23T09:56:38.026Z,19.33
2018-03-23T09:59:06.423Z,18.30
2018-03-23T10:01:34.871Z,16.07
2018-03-23T10:04:03.399Z,16.40
2018-03-23T10:06:31.896Z,15.77
2018-03-23T10:09:00.646Z,15.90
2018-03-23T10:11:30.094Z,15.33
2018-03-23T10:13:58.696Z,13.03
2018-03-23T10:16:27.513Z,12.63
2018-03-23T10:18:56.100Z,12.37
2018-03-23T10:21:25.514Z,13.83
2018-03-23T10:23:54.502Z,13.33
2018-03-23T10:26:22.984Z,10.43
2018-03-23T10:28:51.648Z,13.97
2018-03-23T10:31:20.681Z,10.53
2018-03-23T10:33:49.110Z,15.33
2018-03-23T10:36:17.590Z,10.50
2018-03-23T10:38:45.994Z,13.87
2018-03-23T10:41:14.467Z,14.90
2018-03-23T10:43:42.873Z,11.27
2018-03-23T10:46:11.271Z,13.07
2018-03-23T10:48:39.775Z,11.17
2018-03-23T10:51:08.176Z,10.87
2018-03-23T10:53:36.732Z,12.10
2018-03-23T10:56:05.610Z,11.70
2018-03-23T10:58:34.252Z,12.20
2018-03-23T11:01:08.415Z,11.70
2018-03-23T11:03:36.812Z,10.57
2018-03-23T11:06:05.247Z,12.10
2018-03-23T11:08:33.648Z,12.10
2018-03-23T11:11:02.268Z,11.03
2018-03-23T11:13:30.920Z,10.07
2018-03-23T11:15:59.449Z,17.50
2018-03-23T11:18:28.402Z,14.40
2018-03-23T11:20:57.286Z,12.70
2018-03-23T11:23:26.333Z,10.57
2018-03-23T11:25:54.982Z,11.27
2018-03-23T11:28:23.957Z,13.17
2018-03-23T11:30:52.678Z,12.27
2018-03-23T11:33:21.549Z,14.20
2018-03-23T11:35:50.829Z,12.10
2018-03-23T11:38:19.311Z,13.00
2018-03-23T11:40:47.898Z,15.67
2018-03-23T11:43:16.673Z,9.20
2018-03-23T11:45:45.321Z,12.00
2018-03-23T11:48:13.879Z,11.80
2018-03-23T11:50:42.308Z,11.50
2018-03-23T11:53:10.702Z,10.93
2018-03-23T11:55:39.103Z,10.10
2018-03-23T11:58:07.520Z,11.27
2018-03-23T12:00:35.967Z,9.30
2018-03-23T12:03:04.432Z,10.27
2018-03-23T12:05:32.865Z,8.07
2018-03-23T12:08:01.448Z,10.00
2018-03-23T12:10:29.934Z,8.87
2018-03-23T12:12:58.819Z,8.00
2018-03-23T12:15:27.600Z,6.13
2018-03-23T12:17:57.103Z,6.77
2018-03-23T12:20:25.859Z,12.27
2018-03-23T12:22:55.198Z,6.23
2018-03-23T12:25:24.062Z,6.00
2018-03-23T12:27:52.521Z,4.90
2018-03-23T12:30:21.004Z,5.77
2018-03-23T12:32:49.476Z,6.27
2018-03-23T12:35:18.200Z,5.07
2018-03-23T12:37:46.955Z,6.60
2018-03-23T12:40:15.488Z,5.80
2018-03-23T12:42:44.020Z,9.70
2018-03-23T12:45:12.465Z,6.47
2018-03-23T12:47:40.949Z,6.57
2018-03-23T12:50:09.500Z,9.50
2018-03-23T12:52:37.883Z,6.60
2018-03-23T12:55:06.278Z,7.70
2018-03-23T12:57:34.699Z,6.27
2018-03-23T13:00:03.102Z,6.87
2018-03-23T13:02:31.559Z,7.53
2018-03-23T13:05:00.034Z,10.00
2018-03-23T13:07:28.624Z,7.43
2018-03-23T13:09:57.635Z,14.13
2018-03-23T13:12:26.666Z,10.90
2018-03-23T13:14:56.046Z,13.20
2018-03-23T13:17:25.487Z,14.43
2018-03-23T13:19:54.237Z,13.70
2018-03-23T13:22:22.740Z,17.70
2018-03-23T13:24:51.281Z,16.17
2018-03-23T13:27:19.776Z,20.60
2018-03-23T13:29:48.191Z,18.43
2018-03-23T13:32:16.625Z,17.97
2018-03-23T13:37:19.741Z,14.50
2018-03-23T13:39:48.132Z,18.33
2018-03-23T13:42:16.521Z,21.13
2018-03-23T13:44:44.968Z,17.30
2018-03-23T13:47:13.316Z,17.87
2018-03-23T13:49:41.682Z,19.10
2018-03-23T13:52:10.109Z,20.87
2018-03-23T13:54:38.495Z,21.43
2018-03-23T13:57:06.882Z,19.93
2018-03-23T13:59:40.843Z,21.37
2018-03-23T14:02:09.221Z,22.67
2018-03-23T14:04:37.654Z,19.33
2018-03-23T14:07:06.133Z,19.90
2018-03-23T14:09:34.607Z,23.23
2018-03-23T14:12:03.198Z,23.70
2018-03-23T14:14:31.806Z,24.50
2018-03-23T14:17:00.454Z,26.57
2018-03-23T14:19:29.121Z,24.83
2018-03-23T14:21:57.582Z,27.50
2018-03-23T14:24:26.055Z,21.80
2018-03-23T14:26:54.759Z,21.63
2018-03-23T14:29:23.319Z,21.37
2018-03-23T14:31:51.902Z,18.87
2018-03-23T14:34:20.637Z,20.27
2018-03-23T14:36:49.048Z,17.70
2018-03-23T14:39:17.463Z,19.30
2018-03-23T14:41:46.263Z,18.00
2018-03-23T14:44:14.763Z,17.50
2018-03-23T14:46:43.133Z,18.63
2018-03-23T14:49:11.571Z,14.50
2018-03-23T14:51:39.985Z,15.87
2018-03-23T14:54:08.394Z,15.83
2018-03-23T14:56:36.957Z,12.40
2018-03-23T14:59:10.981Z,11.37
2018-03-23T15:01:39.393Z,12.90
2018-03-23T15:04:07.797Z,14.70
2018-03-23T15:06:36.213Z,14.53
2018-03-23T15:09:05.484Z,13.97
2018-03-23T15:11:34.101Z,13.57
2018-03-23T15:14:14.731Z,11.97
2018-03-23T15:16:43.153Z,14.03
2018-03-23T15:19:11.584Z,16.37
2018-03-23T15:21:40.099Z,13.43
2018-03-23T15:24:08.549Z,15.77
2018-03-23T15:26:36.922Z,12.80
2018-03-23T15:29:05.402Z,16.63
2018-03-23T15:31:33.807Z,14.33
2018-03-23T15:34:02.836Z,12.17
2018-03-23T15:36:31.439Z,10.73
2018-03-23T15:39:00.235Z,12.70
2018-03-23T15:41:28.921Z,11.03
2018-03-23T15:43:57.652Z,15.13
2018-03-23T15:46:26.552Z,11.47
2018-03-23T15:48:55.531Z,12.97
2018-03-23T15:51:24.770Z,12.20
2018-03-23T15:53:53.664Z,15.73
2018-03-23T15:56:23.090Z,12.53
2018-03-23T15:58:51.996Z,12.73
2018-03-23T16:01:20.487Z,12.03
2018-03-23T16:03:49.122Z,13.30
2018-03-23T16:06:18.141Z,11.40
2018-03-23T16:08:46.561Z,17.43
2018-03-23T16:11:15.024Z,15.00
2018-03-23T16:13:43.708Z,14.30
2018-03-23T16:16:12.098Z,12.27
2018-03-23T16:18:40.529Z,14.40
2018-03-23T16:21:08.975Z,15.70
2018-03-23T16:23:37.391Z,13.90
2018-03-23T16:26:05.790Z,16.10
2018-03-23T16:28:34.237Z,15.40
2018-03-23T16:31:03.265Z,18.60
2018-03-23T16:33:31.690Z,15.23
2018-03-23T16:36:00.217Z,19.20
2018-03-23T16:38:29.500Z,16.70
2018-03-23T16:40:58.248Z,17.50
2018-03-23T16:43:27.115Z,16.90
2018-03-23T16:45:55.837Z,16.80
2018-03-23T16:48:25.195Z,18.70
2018-03-23T16:50:53.824Z,21.20
2018-03-23T16:53:22.317Z,17.10
2018-03-23T16:55:50.992Z,15.17
2018-03-23T16:58:19.412Z,18.03
2018-03-23T17:00:48.014Z,19.70
2018-03-23T17:03:16.461Z,17.33
2018-03-23T17:05:44.871Z,20.50
2018-03-23T17:08:13.629Z,19.70
2018-03-23T17:10:42.081Z,21.30
2018-03-23T17:13:10.504Z,17.90
2018-03-23T17:15:38.959Z,22.83
2018-03-23T17:18:07.391Z,19.67
2018-03-23T17:20:36.257Z,24.47
2018-03-23T17:23:05.124Z,25.93
2018-03-23T17:25:33.623Z,20.80
2018-03-23T17:28:02.361Z,19.83
2018-03-23T17:30:31.174Z,26.60
2018-03-23T17:32:59.699Z,19.20
2018-03-23T17:35:28.244Z,26.43
2018-03-23T17:37:57.405Z,26.83
2018-03-23T17:40:26.591Z,23.93
2018-03-23T17:42:55.259Z,19.60
2018-03-23T17:45:24.060Z,27.37
2018-03-23T17:47:52.951Z,20.40
2018-03-23T17:50:21.368Z,23.27
2018-03-23T17:52:50.112Z,31.83
2018-03-23T17:55:18.571Z,24.80
2018-03-23T17:57:47.046Z,28.00
2018-03-23T18:00:15.689Z,26.57
2018-03-23T18:02:44.120Z,24.23
2018-03-23T18:05:12.523Z,26.47
2018-03-23T18:07:41.273Z,27.07
2018-03-23T18:10:09.691Z,27.67
2018-03-23T18:12:38.088Z,30.07
2018-03-23T18:15:06.623Z,34.63
2018-03-23T18:17:35.055Z,30.23
2018-03-23T18:20:03.542Z,29.50
2018-03-23T18:22:31.996Z,37.63
2018-03-23T18:25:00.520Z,32.50
2018-03-23T18:27:29.258Z,39.53
2018-03-23T18:29:58.073Z,42.93
2018-03-23T18:32:26.765Z,42.93
2018-03-23T18:34:55.249Z,35.20
2018-03-23T18:37:24.094Z,30.67
2018-03-23T18:39:52.762Z,32.30
2018-03-23T18:42:21.353Z,39.03
2018-03-23T18:44:49.964Z,37.90
2018-03-23T18:47:18.620Z,43.20
2018-03-23T18:49:47.252Z,36.67
2018-03-23T18:52:16.196Z,45.20
2018-03-23T18:54:44.720Z,36.73
2018-03-23T18:57:13.163Z,39.47
2018-03-23T18:59:41.566Z,39.27
2018-03-23T19:02:10.056Z,44.30
2018-03-23T19:04:38.531Z,40.13
2018-03-23T19:07:06.932Z,42.53
2018-03-23T19:09:35.380Z,37.10
2018-03-23T19:12:04.656Z,36.23
2018-03-23T19:14:33.190Z,38.93
2018-03-23T19:17:01.887Z,40.80
2018-03-23T19:19:30.292Z,44.43
2018-03-23T19:21:58.708Z,46.80
2018-03-23T19:24:27.142Z,43.40
2018-03-23T19:26:55.552Z,42.87
2018-03-23T19:29:24.011Z,42.03
2018-03-23T19:31:52.408Z,44.67
2018-03-23T19:34:20.830Z,47.70
2018-03-23T19:36:49.269Z,44.60
2018-03-23T19:39:17.721Z,45.90
2018-03-23T19:41:46.207Z,49.93
2018-03-23T19:44:14.744Z,46.03
2018-03-23T19:46:43.313Z,43.27
2018-03-23T19:49:11.898Z,47.00
2018-03-23T19:51:40.615Z,49.03
2018-03-23T19:54:09.565Z,42.80
2018-03-23T19:56:38.296Z,52.50
2018-03-23T19:59:06.856Z,49.90
2018-03-23T20:01:35.291Z,54.27
2018-03-23T20:04:03.796Z,55.70
2018-03-23T20:06:32.304Z,53.17
2018-03-23T20:09:00.757Z,57.20
2018-03-23T20:11:29.280Z,50.47
2018-03-23T20:14:03.374Z,52.80
2018-03-23T20:16:31.849Z,48.43
2018-03-23T20:19:00.312Z,50.47
2018-03-23T20:21:28.956Z,56.07
2018-03-23T20:27:01.117Z,60.17
2018-03-23T20:29:29.656Z,70.00
2018-03-23T20:32:03.848Z,63.43
2018-03-23T20:34:32.311Z,69.10
2018-03-23T20:37:00.696Z,55.87
2018-03-23T20:39:29.079Z,61.83
2018-03-23T20:41:57.479Z,59.20
2018-03-23T20:44:25.877Z,40.87
2018-03-23T20:46:54.322Z,43.63
2018-03-23T20:49:22.713Z,51.57
2018-03-23T20:51:51.084Z,46.67
2018-03-23T20:54:19.461Z,48.90
2018-03-23T20:56:47.840Z,50.70
2018-03-23T20:59:16.285Z,55.23
2018-03-23T21:01:44.655Z,53.40
2018-03-23T21:04:13.044Z,55.13
2018-03-23T21:06:41.463Z,47.77
2018-03-23T21:09:09.856Z,55.87
2018-03-23T21:11:38.295Z,50.70
2018-03-23T21:14:06.681Z,53.90
2018-03-23T21:16:35.092Z,48.83
2018-03-23T21:19:03.482Z,50.07
2018-03-23T21:21:31.917Z,51.53
2018-03-23T21:24:00.378Z,52.13
2018-03-23T21:26:28.752Z,50.57
2018-03-23T21:28:57.151Z,42.77
2018-03-23T21:31:29.772Z,42.50
2018-03-23T21:33:58.151Z,43.60
2018-03-23T21:36:26.930Z,53.67
2018-03-23T21:38:55.316Z,45.15
2018-03-23T21:41:23.739Z,45.53
2018-03-23T21:43:52.184Z,45.93
2018-03-23T21:46:22.146Z,39.07
2018-03-23T21:48:50.656Z,42.38
2018-03-23T21:51:19.099Z,46.03
2018-03-23T21:53:52.709Z,52.10
2018-03-23T21:56:21.106Z,46.22
2018-03-23T21:58:49.612Z,42.62
2018-03-23T22:01:18.005Z,35.37
2018-03-23T22:03:46.437Z,42.27
2018-03-23T22:06:14.896Z,39.53
2018-03-23T22:08:43.828Z,38.63
2018-03-23T22:11:12.238Z,38.50
2018-03-23T22:13:41.535Z,45.50
2018-03-23T22:16:10.036Z,40.78
2018-03-23T22:18:38.468Z,33.40
2018-03-23T22:21:06.853Z,42.13
2018-03-23T22:23:35.232Z,37.10
2018-03-23T22:26:03.628Z,34.90
2018-03-23T22:28:32.101Z,32.35
2018-03-23T22:31:00.499Z,32.10
2018-03-23T22:33:28.895Z,39.10
2018-03-23T22:35:57.290Z,33.73
2018-03-23T22:38:26.666Z,36.47
2018-03-23T22:40:55.086Z,35.83
2018-03-23T22:43:23.485Z,41.10
2018-03-23T22:45:51.875Z,35.93
2018-03-23T22:48:20.292Z,35.47
2018-03-23T22:50:48.741Z,34.50
2018-03-23T22:53:17.132Z,43.50
2018-03-23T22:55:45.535Z,35.47
2018-03-23T22:58:13.926Z,35.43
2018-03-23T23:00:42.400Z,35.67
2018-03-23T23:03:10.836Z,32.55
2018-03-23T23:05:39.251Z,34.47
2018-03-23T23:08:07.718Z,37.83
2018-03-23T23:10:36.121Z,31.87
2018-03-23T23:13:04.503Z,31.53
2018-03-23T23:15:32.897Z,33.95
2018-03-23T23:18:01.279Z,34.30
2018-03-23T23:20:29.822Z,31.00
2018-03-23T23:22:58.198Z,33.87
2018-03-23T23:25:26.626Z,35.70
2018-03-23T23:27:55.021Z,37.47
2018-03-23T23:30:23.408Z,41.87
2018-03-23T23:32:51.836Z,36.97
2018-03-23T23:35:20.234Z,29.75
2018-03-23T23:37:48.650Z,32.00
2018-03-23T23:40:17.087Z,33.05
2018-03-23T23:42:45.472Z,32.40
2018-03-23T23:45:14.020Z,32.25
2018-03-23T23:47:42.410Z,27.27
2018-03-23T23:50:10.806Z,27.73
2018-03-23T23:52:39.205Z,37.20
2018-03-23T23:55:07.638Z,28.40
2018-03-23T23:57:36.096Z,27.63
